createdAt,value
2022-12-16T00:00:09.028Z,20.77
2022-12-16T00:02:41.624Z,20.77
2022-12-16T00:05:15.981Z,18.97
2022-12-16T00:10:09.452Z,18.53
2022-12-16T00:12:36.040Z,20.20
2022-12-16T00:15:02.720Z,20.50
2022-12-16T00:17:29.400Z,20.10
2022-12-16T00:19:56.042Z,18.80
2022-12-16T00:22:23.272Z,18.53
2022-12-16T00:24:50.181Z,18.60
2022-12-16T00:27:17.154Z,18.73
2022-12-16T00:29:47.206Z,19.30
2022-12-16T00:32:14.083Z,18.93
2022-12-16T00:34:43.125Z,17.67
2022-12-16T00:37:11.921Z,19.20
2022-12-16T00:39:39.064Z,17.13
2022-12-16T00:42:06.345Z,17.70
2022-12-16T00:44:38.705Z,17.90
2022-12-16T00:47:08.254Z,17.03
2022-12-16T00:49:35.350Z,18.23
2022-12-16T00:52:02.738Z,17.23
2022-12-16T00:54:31.450Z,17.60
2022-12-16T00:56:58.095Z,18.13
2022-12-16T00:59:24.922Z,17.00
2022-12-16T01:01:57.322Z,17.80
2022-12-16T01:04:26.625Z,16.40
2022-12-16T01:06:54.737Z,17.63
2022-12-16T01:09:22.022Z,18.03
2022-12-16T01:11:48.632Z,18.60
2022-12-16T01:14:15.392Z,17.17
2022-12-16T01:16:41.991Z,16.77
2022-12-16T01:19:09.672Z,15.67
2022-12-16T01:21:36.308Z,17.80
2022-12-16T01:24:02.952Z,17.30
2022-12-16T01:26:30.061Z,17.27
2022-12-16T01:28:56.928Z,16.83
2022-12-16T01:31:24.294Z,17.00
2022-12-16T01:33:51.108Z,16.00
2022-12-16T01:36:19.674Z,16.67
2022-12-16T01:38:46.416Z,16.70
2022-12-16T01:41:14.117Z,16.67
2022-12-16T01:43:41.709Z,15.00
2022-12-16T01:46:10.117Z,16.43
2022-12-16T01:48:52.927Z,15.50
2022-12-16T01:51:26.239Z,17.03
2022-12-16T01:53:57.373Z,16.27
2022-12-16T01:56:25.625Z,16.53
2022-12-16T01:58:52.489Z,15.33
2022-12-16T02:01:19.254Z,15.63
2022-12-16T02:03:46.879Z,16.27
2022-12-16T02:06:13.548Z,16.40
2022-12-16T02:08:40.300Z,16.03
2022-12-16T02:11:28.692Z,17.40
2022-12-16T02:14:01.240Z,17.80
2022-12-16T02:17:01.355Z,14.87
2022-12-16T02:20:09.325Z,16.00
2022-12-16T02:22:57.953Z,15.57
2022-12-16T02:25:47.017Z,15.80
2022-12-16T02:28:32.668Z,14.53
2022-12-16T02:31:10.807Z,15.50
2022-12-16T02:34:09.368Z,14.97
2022-12-16T02:37:12.754Z,16.37
2022-12-16T02:40:00.292Z,16.27
2022-12-16T02:42:32.410Z,15.97
2022-12-16T02:45:13.498Z,15.07
2022-12-16T02:47:40.176Z,15.30
2022-12-16T02:50:27.114Z,16.37
2022-12-16T02:52:55.050Z,16.07
2022-12-16T02:55:29.716Z,15.30
2022-12-16T02:58:04.942Z,15.47
2022-12-16T03:00:49.444Z,14.87
2022-12-16T03:03:24.667Z,18.35
2022-12-16T03:05:52.713Z,108.63
2022-12-16T03:08:23.363Z,132.60
2022-12-16T03:10:57.355Z,39.60
2022-12-16T03:13:24.658Z,21.77
2022-12-16T03:15:53.696Z,21.33
2022-12-16T03:18:29.477Z,18.50
2022-12-16T03:21:02.952Z,16.97
2022-12-16T03:23:34.426Z,14.85
2022-12-16T03:26:06.348Z,14.93
2022-12-16T03:28:32.945Z,14.87
2022-12-16T03:31:13.164Z,15.33
2022-12-16T03:33:45.816Z,14.90
2022-12-16T03:36:21.300Z,15.67
2022-12-16T03:38:48.658Z,15.37
2022-12-16T03:41:18.945Z,14.20
2022-12-16T03:43:48.715Z,15.63
2022-12-16T03:46:18.147Z,16.67
2022-12-16T03:48:54.609Z,15.60
2022-12-16T03:51:21.402Z,16.30
2022-12-16T03:53:48.060Z,16.37
2022-12-16T03:56:14.729Z,15.47
2022-12-16T03:58:41.478Z,14.57
2022-12-16T04:01:09.516Z,14.50
2022-12-16T04:03:37.748Z,15.07
2022-12-16T04:06:04.967Z,14.43
2022-12-16T04:08:32.438Z,14.30
2022-12-16T04:11:17.715Z,14.10
2022-12-16T04:14:02.860Z,15.07
2022-12-16T04:16:48.709Z,14.70
2022-12-16T04:20:05.994Z,15.00
2022-12-16T04:22:55.369Z,13.77
2022-12-16T04:25:30.715Z,14.77
2022-12-16T04:27:58.649Z,14.90
2022-12-16T04:30:27.581Z,14.67
2022-12-16T04:33:25.087Z,14.10
2022-12-16T04:36:10.260Z,14.63
2022-12-16T04:38:55.485Z,14.90
2022-12-16T04:41:40.757Z,14.57
2022-12-16T04:44:26.120Z,14.17
2022-12-16T04:47:11.777Z,14.70
2022-12-16T04:49:59.497Z,14.70
2022-12-16T04:52:44.791Z,15.63
2022-12-16T04:55:36.662Z,16.00
2022-12-16T04:58:23.857Z,14.13
2022-12-16T05:01:09.291Z,15.80
2022-12-16T05:03:56.338Z,16.17
2022-12-16T05:06:41.693Z,15.40
2022-12-16T05:09:27.655Z,14.47
2022-12-16T05:12:13.013Z,13.83
2022-12-16T05:14:58.401Z,14.73
2022-12-16T05:17:45.257Z,14.80
2022-12-16T05:20:30.575Z,15.20
2022-12-16T05:23:15.960Z,15.37
2022-12-16T05:26:02.265Z,14.80
2022-12-16T05:28:48.259Z,15.07
2022-12-16T05:31:33.661Z,14.83
2022-12-16T05:34:19.035Z,15.97
2022-12-16T05:37:04.398Z,15.77
2022-12-16T05:39:49.796Z,15.90
2022-12-16T05:42:35.031Z,15.13
2022-12-16T05:45:20.502Z,15.30
2022-12-16T05:48:08.771Z,14.73
2022-12-16T05:50:57.535Z,15.90
2022-12-16T05:53:42.950Z,14.77
2022-12-16T05:56:31.479Z,14.50
2022-12-16T05:59:16.909Z,15.27
2022-12-16T06:02:05.478Z,13.67
2022-12-16T06:04:51.025Z,12.80
2022-12-16T06:07:37.686Z,15.37
2022-12-16T06:10:23.643Z,14.33
2022-12-16T06:13:08.927Z,14.13
2022-12-16T06:15:54.497Z,14.73
2022-12-16T06:18:39.744Z,14.67
2022-12-16T06:21:24.923Z,14.63
2022-12-16T06:24:12.034Z,14.67
2022-12-16T06:26:57.394Z,14.53
2022-12-16T06:29:43.146Z,14.87
2022-12-16T06:32:28.450Z,15.00
2022-12-16T06:35:13.949Z,14.23
2022-12-16T06:37:59.222Z,16.17
2022-12-16T06:40:44.571Z,15.33
2022-12-16T06:43:30.331Z,15.43
2022-12-16T06:46:18.765Z,14.40
2022-12-16T06:49:06.602Z,17.37
2022-12-16T06:51:51.853Z,14.87
2022-12-16T06:54:37.155Z,15.10
2022-12-16T06:57:22.458Z,15.40
2022-12-16T07:00:08.130Z,14.83
2022-12-16T07:02:54.007Z,16.23
2022-12-16T07:05:39.316Z,16.07
2022-12-16T07:08:24.785Z,16.33
2022-12-16T07:11:16.577Z,15.47
2022-12-16T07:14:05.038Z,17.40
2022-12-16T07:16:50.455Z,17.33
2022-12-16T07:19:38.526Z,17.00
2022-12-16T07:22:24.049Z,16.43
2022-12-16T07:25:09.370Z,15.67
2022-12-16T07:27:54.813Z,15.73
2022-12-16T07:30:40.577Z,16.43
2022-12-16T07:33:25.989Z,16.40
2022-12-16T07:36:11.288Z,17.57
2022-12-16T07:38:57.216Z,16.60
2022-12-16T07:41:42.578Z,17.03
2022-12-16T07:44:27.860Z,17.10
2022-12-16T07:47:13.143Z,16.40
2022-12-16T07:49:58.434Z,17.37
2022-12-16T07:52:44.149Z,16.87
2022-12-16T07:55:29.530Z,17.60
2022-12-16T07:58:14.756Z,16.10
2022-12-16T08:01:03.725Z,17.10
2022-12-16T08:03:51.739Z,18.47
2022-12-16T08:06:40.464Z,17.50
2022-12-16T08:09:25.858Z,21.40
2022-12-16T08:12:11.130Z,18.80
2022-12-16T08:14:56.405Z,22.00
2022-12-16T08:17:41.879Z,19.90
2022-12-16T08:20:27.710Z,22.10
2022-12-16T08:23:12.903Z,19.70
2022-12-16T08:25:58.045Z,18.27
2022-12-16T08:28:43.193Z,18.27
2022-12-16T08:31:28.451Z,23.77
2022-12-16T08:34:13.832Z,18.93
2022-12-16T08:36:59.302Z,18.67
2022-12-16T08:39:44.562Z,16.93
2022-12-16T08:42:29.854Z,19.07
2022-12-16T08:45:15.257Z,19.33
2022-12-16T08:48:00.411Z,17.67
2022-12-16T08:50:45.681Z,20.77
2022-12-16T08:53:31.231Z,18.40
2022-12-16T08:56:16.643Z,19.37
2022-12-16T08:59:01.938Z,22.23
2022-12-16T09:01:47.377Z,22.23
2022-12-16T09:04:32.897Z,21.30
2022-12-16T09:07:18.210Z,20.40
2022-12-16T09:10:03.580Z,23.50
2022-12-16T09:12:48.883Z,20.37
2022-12-16T09:15:34.238Z,20.47
2022-12-16T09:18:19.477Z,19.87
2022-12-16T09:21:04.708Z,19.13
2022-12-16T09:23:49.910Z,18.63
2022-12-16T09:26:35.483Z,17.53
2022-12-16T09:29:20.836Z,18.10
2022-12-16T09:32:06.234Z,18.90
2022-12-16T09:34:51.444Z,20.10
2022-12-16T09:37:36.749Z,18.90
2022-12-16T09:40:22.620Z,21.77
2022-12-16T09:43:35.077Z,21.40
2022-12-16T09:46:31.928Z,19.50
2022-12-16T09:49:48.757Z,19.90
2022-12-16T09:52:36.003Z,21.77
2022-12-16T09:55:23.222Z,21.00
2022-12-16T09:58:09.148Z,22.37
2022-12-16T10:00:54.983Z,23.80
2022-12-16T10:03:53.227Z,22.40
2022-12-16T10:06:52.768Z,22.97
2022-12-16T10:10:02.336Z,22.97
2022-12-16T10:13:16.797Z,23.60
2022-12-16T10:16:17.355Z,25.40
2022-12-16T10:19:35.173Z,23.80
2022-12-16T10:22:32.365Z,23.30
2022-12-16T10:25:30.076Z,22.40
2022-12-16T10:28:25.469Z,25.43
2022-12-16T10:31:10.837Z,25.50
2022-12-16T10:33:56.198Z,25.90
2022-12-16T10:36:42.628Z,24.93
2022-12-16T10:39:45.344Z,26.27
2022-12-16T10:42:41.358Z,26.07
2022-12-16T10:45:53.090Z,27.33
2022-12-16T10:48:56.607Z,25.53
2022-12-16T10:51:44.894Z,25.47
2022-12-16T10:54:39.385Z,26.90
2022-12-16T10:57:48.720Z,25.65
2022-12-16T11:01:02.863Z,27.20
2022-12-16T11:03:50.715Z,28.03
2022-12-16T11:06:54.403Z,26.73
2022-12-16T11:09:47.791Z,28.73
2022-12-16T11:12:53.258Z,28.17
2022-12-16T11:15:41.835Z,27.70
2022-12-16T11:18:39.317Z,26.73
2022-12-16T11:21:29.763Z,28.47
2022-12-16T11:24:37.772Z,26.97
2022-12-16T11:27:25.729Z,25.07
2022-12-16T11:30:38.360Z,26.27
2022-12-16T11:33:38.000Z,27.57
2022-12-16T11:36:32.746Z,27.37
2022-12-16T11:39:18.086Z,27.67
2022-12-16T11:42:06.071Z,27.50
2022-12-16T11:45:03.190Z,25.37
2022-12-16T11:47:58.045Z,26.43
2022-12-16T11:53:51.527Z,23.43
2022-12-16T11:56:41.899Z,25.93
2022-12-16T11:59:39.605Z,25.53
2022-12-16T12:02:32.940Z,27.07
2022-12-16T12:05:18.450Z,25.90
2022-12-16T12:08:36.966Z,26.83
2022-12-16T12:11:29.460Z,25.33
2022-12-16T12:14:32.110Z,27.50
2022-12-16T12:17:31.314Z,27.40
2022-12-16T12:20:50.353Z,27.23
2022-12-16T12:23:48.875Z,27.83
2022-12-16T12:26:40.195Z,26.83
2022-12-16T12:29:44.589Z,26.37
2022-12-16T12:33:11.447Z,25.65
2022-12-16T12:36:04.534Z,26.87
2022-12-16T12:38:54.631Z,26.43
2022-12-16T12:41:46.968Z,25.83
2022-12-16T12:44:58.610Z,26.83
2022-12-16T12:48:05.748Z,26.37
2022-12-16T12:51:12.901Z,26.27
2022-12-16T12:54:06.299Z,26.47
2022-12-16T12:57:08.582Z,26.90
2022-12-16T13:00:13.961Z,27.40
2022-12-16T13:03:24.129Z,25.73
2022-12-16T13:06:10.056Z,26.53
2022-12-16T13:09:07.707Z,25.93
2022-12-16T13:11:54.065Z,27.33
2022-12-16T13:14:49.822Z,28.50
2022-12-16T13:17:41.884Z,26.65
2022-12-16T13:20:52.488Z,26.47
2022-12-16T13:23:54.589Z,27.77
2022-12-16T13:26:44.752Z,27.77
2022-12-16T13:29:29.881Z,26.73
2022-12-16T13:32:23.379Z,26.93
2022-12-16T13:35:18.920Z,27.43
2022-12-16T13:38:15.141Z,27.57
2022-12-16T13:41:15.145Z,27.93
2022-12-16T13:44:13.673Z,29.53
2022-12-16T13:47:07.803Z,29.33
2022-12-16T13:49:56.440Z,27.27
2022-12-16T13:52:50.910Z,26.67
2022-12-16T13:55:38.430Z,25.10
2022-12-16T13:58:27.207Z,27.20
2022-12-16T14:01:15.036Z,26.87
2022-12-16T14:04:04.354Z,28.23
2022-12-16T14:06:50.385Z,26.60
2022-12-16T14:09:56.929Z,27.30
2022-12-16T14:12:54.016Z,26.57
2022-12-16T14:15:46.601Z,27.53
2022-12-16T14:18:43.976Z,26.10
2022-12-16T14:21:32.825Z,28.27
2022-12-16T14:24:23.518Z,26.63
2022-12-16T14:27:08.800Z,28.17
2022-12-16T14:29:54.000Z,27.63
2022-12-16T14:32:53.534Z,26.50
2022-12-16T14:35:40.937Z,28.77
2022-12-16T14:38:48.903Z,27.93
2022-12-16T14:41:43.613Z,26.60
2022-12-16T14:44:42.267Z,28.33
2022-12-16T14:47:47.654Z,26.77
2022-12-16T14:50:48.059Z,27.17
2022-12-16T14:53:42.774Z,28.27
2022-12-16T14:56:34.274Z,27.97
2022-12-16T14:59:45.813Z,27.23
2022-12-16T15:02:55.740Z,28.37
2022-12-16T15:05:49.661Z,26.23
2022-12-16T15:08:35.259Z,26.57
2022-12-16T15:11:22.349Z,26.70
2022-12-16T15:14:13.105Z,26.93
2022-12-16T15:16:58.367Z,27.73
2022-12-16T15:19:43.811Z,25.87
2022-12-16T15:22:33.811Z,28.13
2022-12-16T15:25:19.081Z,27.00
2022-12-16T15:28:12.507Z,30.97
2022-12-16T15:31:03.497Z,28.37
2022-12-16T15:33:54.387Z,28.37
2022-12-16T15:36:49.426Z,27.67
2022-12-16T15:39:39.712Z,26.97
2022-12-16T15:42:37.547Z,25.60
2022-12-16T15:45:23.445Z,27.80
2022-12-16T15:48:09.799Z,26.77
2022-12-16T15:51:11.892Z,28.63
2022-12-16T15:53:57.723Z,27.00
2022-12-16T15:56:45.613Z,27.90
2022-12-16T15:59:46.130Z,27.00
2022-12-16T16:02:40.772Z,26.47
2022-12-16T16:05:35.303Z,27.90
2022-12-16T16:08:20.724Z,25.63
2022-12-16T16:11:06.028Z,27.27
2022-12-16T16:13:51.335Z,25.60
2022-12-16T16:16:37.137Z,25.83
2022-12-16T16:19:22.993Z,27.63
2022-12-16T16:22:08.229Z,22.97
2022-12-16T16:24:53.638Z,28.37
2022-12-16T16:27:38.833Z,28.23
2022-12-16T16:30:24.530Z,25.97
2022-12-16T16:33:09.995Z,27.10
2022-12-16T16:35:55.133Z,25.87
2022-12-16T16:38:40.429Z,26.53
2022-12-16T16:41:32.884Z,25.30
2022-12-16T16:44:19.945Z,27.43
2022-12-16T16:47:05.657Z,26.07
2022-12-16T16:50:01.536Z,26.10
2022-12-16T16:52:46.806Z,24.40
2022-12-16T16:55:40.885Z,24.97
2022-12-16T16:58:31.327Z,26.00
2022-12-16T17:01:16.745Z,26.30
2022-12-16T17:04:02.538Z,25.80
2022-12-16T17:06:47.971Z,26.70
2022-12-16T17:09:33.297Z,26.93
2022-12-16T17:12:18.621Z,26.60
2022-12-16T17:15:03.947Z,26.53
2022-12-16T17:17:49.105Z,24.30
2022-12-16T17:20:37.019Z,27.33
2022-12-16T17:23:22.300Z,26.13
2022-12-16T17:26:08.460Z,25.87
2022-12-16T17:28:53.956Z,25.03
2022-12-16T17:31:39.228Z,25.53
2022-12-16T17:34:24.735Z,24.50
2022-12-16T17:37:10.033Z,25.80
2022-12-16T17:39:55.348Z,25.33
2022-12-16T17:42:46.156Z,26.70
2022-12-16T17:45:35.752Z,26.33
2022-12-16T17:48:22.345Z,27.73
2022-12-16T17:51:07.588Z,27.77
2022-12-16T17:53:58.686Z,25.93
2022-12-16T17:56:49.483Z,24.90
2022-12-16T17:59:34.738Z,26.73
2022-12-16T18:02:19.995Z,24.87
2022-12-16T18:05:05.449Z,26.53
2022-12-16T18:07:50.716Z,28.37
2022-12-16T18:10:36.228Z,27.03
2022-12-16T18:13:21.424Z,27.43
2022-12-16T18:16:10.729Z,27.10
2022-12-16T18:18:56.099Z,24.00
2022-12-16T18:21:41.322Z,26.10
2022-12-16T18:24:27.739Z,28.23
2022-12-16T18:27:13.178Z,25.93
2022-12-16T18:29:58.515Z,27.63
2022-12-16T18:32:44.136Z,26.67
2022-12-16T18:35:29.303Z,27.07
2022-12-16T18:38:16.565Z,27.50
2022-12-16T18:41:02.113Z,27.07
2022-12-16T18:43:47.670Z,28.13
2022-12-16T18:46:32.890Z,29.23
2022-12-16T18:49:18.193Z,27.27
2022-12-16T18:52:03.365Z,27.03
2022-12-16T18:54:48.708Z,26.40
2022-12-16T18:57:39.326Z,28.27
2022-12-16T19:00:25.603Z,26.43
2022-12-16T19:03:10.999Z,25.87
2022-12-16T19:05:56.431Z,29.03
2022-12-16T19:08:41.775Z,29.63
2022-12-16T19:11:27.102Z,26.70
2022-12-16T19:14:12.334Z,27.23
2022-12-16T19:16:57.880Z,27.33
2022-12-16T19:19:43.202Z,25.70
2022-12-16T19:22:28.660Z,27.93
2022-12-16T19:25:13.859Z,26.80
2022-12-16T19:27:59.356Z,28.77
2022-12-16T19:30:44.621Z,28.20
2022-12-16T19:33:30.394Z,27.30
2022-12-16T19:36:15.737Z,27.03
2022-12-16T19:39:01.112Z,27.87
2022-12-16T19:41:46.462Z,25.43
2022-12-16T19:44:31.924Z,30.17
2022-12-16T19:47:17.225Z,27.63
2022-12-16T19:50:02.652Z,26.33
2022-12-16T19:52:47.917Z,27.00
2022-12-16T19:55:33.610Z,27.57
2022-12-16T19:58:19.017Z,28.47
2022-12-16T20:01:05.641Z,26.57
2022-12-16T20:03:52.351Z,26.27
2022-12-16T20:06:40.768Z,26.00
2022-12-16T20:09:26.054Z,27.33
2022-12-16T20:12:11.604Z,26.67
2022-12-16T20:14:56.818Z,24.93
2022-12-16T20:17:42.192Z,26.97
2022-12-16T20:20:27.658Z,28.53
2022-12-16T20:23:14.488Z,26.80
2022-12-16T20:25:59.826Z,24.07
2022-12-16T20:28:55.888Z,25.63
2022-12-16T20:31:41.354Z,25.70
2022-12-16T20:34:27.567Z,26.63
2022-12-16T20:37:12.841Z,26.13
2022-12-16T20:39:58.296Z,24.37
2022-12-16T20:42:44.486Z,26.27
2022-12-16T20:45:30.394Z,26.40
2022-12-16T20:48:15.560Z,26.90
2022-12-16T20:51:00.985Z,26.57
2022-12-16T20:53:46.268Z,26.83
2022-12-16T20:56:31.698Z,26.27
2022-12-16T20:59:18.861Z,26.30
2022-12-16T21:05:09.700Z,24.40
2022-12-16T21:07:54.987Z,24.70
2022-12-16T21:10:42.188Z,25.67
2022-12-16T21:13:32.521Z,26.27
2022-12-16T21:16:19.301Z,24.83
2022-12-16T21:19:04.935Z,27.03
2022-12-16T21:21:50.338Z,26.17
2022-12-16T21:24:35.605Z,27.10
2022-12-16T21:27:20.956Z,25.33
2022-12-16T21:30:06.328Z,26.10
2022-12-16T21:32:51.713Z,27.67
2022-12-16T21:35:39.195Z,26.83
2022-12-16T21:38:33.603Z,27.20
2022-12-16T21:41:19.290Z,25.98
2022-12-16T21:44:04.796Z,27.87
2022-12-16T21:46:50.013Z,27.80
2022-12-16T21:49:35.380Z,26.67
2022-12-16T21:52:20.711Z,24.20
2022-12-16T21:55:06.811Z,24.90
2022-12-16T22:01:00.480Z,24.23
2022-12-16T22:03:53.108Z,25.00
2022-12-16T22:06:42.174Z,24.50
2022-12-16T22:09:33.364Z,25.83
2022-12-16T22:12:18.753Z,24.77
2022-12-16T22:15:04.180Z,25.07
2022-12-16T22:17:57.757Z,24.80
2022-12-16T22:20:44.737Z,25.00
2022-12-16T22:23:30.227Z,24.77
2022-12-16T22:26:19.476Z,23.93
2022-12-16T22:29:04.773Z,24.87
2022-12-16T22:31:50.417Z,24.13
2022-12-16T22:34:37.755Z,23.90
2022-12-16T22:37:24.851Z,25.13
2022-12-16T22:40:10.149Z,22.90
2022-12-16T22:42:56.275Z,23.27
2022-12-16T22:45:41.653Z,24.67
2022-12-16T22:48:27.698Z,22.90
2022-12-16T22:51:13.016Z,23.27
2022-12-16T22:53:59.659Z,24.10
2022-12-16T22:56:45.188Z,25.60
2022-12-16T22:59:31.528Z,23.83
2022-12-16T23:02:27.330Z,24.90
2022-12-16T23:05:14.754Z,24.40
2022-12-16T23:08:00.167Z,25.53
2022-12-16T23:10:45.851Z,24.57
2022-12-16T23:13:32.722Z,23.37
2022-12-16T23:16:18.292Z,24.10
2022-12-16T23:19:15.313Z,25.43
2022-12-16T23:22:00.651Z,24.67
2022-12-16T23:24:45.930Z,24.33
2022-12-16T23:27:31.272Z,24.00
2022-12-16T23:30:16.604Z,22.53
2022-12-16T23:32:30.552Z,27.47
2022-12-16T23:33:01.750Z,25.13
2022-12-16T23:35:47.191Z,26.13
2022-12-16T23:38:32.758Z,24.33
2022-12-16T23:41:18.246Z,25.33
2022-12-16T23:44:03.761Z,23.93
2022-12-16T23:46:49.761Z,26.70
2022-12-16T23:49:35.234Z,25.97
2022-12-16T23:52:20.624Z,26.60
2022-12-16T23:55:05.923Z,22.67
2022-12-16T23:57:57.721Z,24.63
